»·PEaware :: N333ZS KSBA-KBUR

N333ZS :: KSBA-KBUR

FLIGHT INFORMATION

Flight Status: Arrived
Operator: Privately registered:
United States
More flights under this callsign
Pilot: Judd H. (29974)
Aircraft: CESSNA 182 SKYLANE
(C182)
More flights by this aircraft type
Origin: KSBA Santa Barbara Mun
United States
Destination: KBUR Bob Hope-Burbank
United States
More flights between these airports :: More routes between these airports
Route: FIM
File this flight plan on PilotEdge
Remarks:
Altitude:
(Current/Filed)
5,500ft
Speed:
(Current/Filed)
120kts
Departed: 07-Aug-20 05:55 PM
Arrived: 07-Aug-20 06:42 PM
Distance/Time
Traveled:
75nm/0:46
Distance/Time
To Go:
Arrived

Flight Plot

Page will automatically refresh every two minutes.


Map Options




Map Legend


Flown Route
Filed Route
Departure Airport
Arrival Airport
Navaid (VOR, NDB)
Fix

Horizontal Profiles

Position Reports

Time Latitude Longitude Heading Altitude Ground
Speed
07-Aug-20 17:40 34.431861 -119.839417 268 13ft 0kts
07-Aug-20 17:41 34.431861 -119.839417 268 13ft 0kts
07-Aug-20 17:42 34.431861 -119.839417 268 13ft 0kts
07-Aug-20 17:43 34.431861 -119.839417 268 13ft 0kts
07-Aug-20 17:44 34.431861 -119.839418 268 13ft 0kts
07-Aug-20 17:45 34.431861 -119.839420 268 13ft 0kts
07-Aug-20 17:46 34.431861 -119.839421 268 13ft 0kts
07-Aug-20 17:47 34.431861 -119.839423 268 13ft 0kts
07-Aug-20 17:48 34.431861 -119.839424 268 13ft 0kts
07-Aug-20 17:48 34.431861 -119.839425 268 13ft 0kts
07-Aug-20 17:50 34.431861 -119.839427 268 13ft 0kts
07-Aug-20 17:51 34.431859 -119.839464 264 13ft 4kts
07-Aug-20 17:51 34.431512 -119.837042 72 13ft 14kts
07-Aug-20 17:52 34.429047 -119.835048 127 13ft 15kts
07-Aug-20 17:54 34.428713 -119.834616 175 13ft 0kts
07-Aug-20 17:54 34.427778 -119.841404 267 21ft 86kts
07-Aug-20 17:55 34.425712 -119.879915 266 505ft 126kts
07-Aug-20 17:57 34.425042 -119.929261 270 814ft 127kts
07-Aug-20 17:57 34.425441 -119.964552 270 995ft 120kts
07-Aug-20 17:58 34.425795 -120.003894 269 1374ft 115kts
07-Aug-20 17:59 34.425914 -120.044962 270 1406ft 126kts
07-Aug-20 18:00 34.448742 -120.074683 333 1504ft 124kts
07-Aug-20 18:01 34.481347 -120.078890 26 2258ft 127kts
07-Aug-20 18:02 34.504330 -120.046242 55 3082ft 129kts
07-Aug-20 18:03 34.517345 -120.006758 95 3861ft 128kts
07-Aug-20 18:04 34.509633 -119.964769 102 4644ft 126kts
07-Aug-20 18:05 34.501772 -119.923936 102 5437ft 122kts
07-Aug-20 18:06 34.493420 -119.881336 103 5496ft 135kts
07-Aug-20 18:07 34.484509 -119.836123 103 5493ft 139kts
07-Aug-20 18:08 34.475452 -119.790629 103 5492ft 139kts
07-Aug-20 18:09 34.466344 -119.744949 103 5493ft 139kts
07-Aug-20 18:10 34.457135 -119.699355 103 5493ft 139kts
07-Aug-20 18:11 34.447895 -119.653774 103 5491ft 137kts
07-Aug-20 18:12 34.438958 -119.609639 103 5487ft 132kts
07-Aug-20 18:13 34.432052 -119.565676 98 5502ft 136kts
07-Aug-20 18:14 34.422552 -119.520705 110 5490ft 140kts
07-Aug-20 18:15 34.415429 -119.474776 101 5501ft 139kts
07-Aug-20 18:16 34.408926 -119.428732 99 5501ft 138kts
07-Aug-20 18:17 34.403450 -119.382463 98 5502ft 138kts
07-Aug-20 18:18 34.398414 -119.336697 98 5503ft 136kts
07-Aug-20 18:19 34.393347 -119.290977 98 5504ft 137kts
07-Aug-20 18:20 34.387338 -119.245541 100 5501ft 136kts
07-Aug-20 18:21 34.380986 -119.200139 101 5499ft 136kts
07-Aug-20 18:22 34.375049 -119.154711 98 5499ft 136kts
07-Aug-20 18:23 34.370964 -119.108826 97 5501ft 137kts
07-Aug-20 18:24 34.367382 -119.062876 96 5504ft 137kts
07-Aug-20 18:25 34.364251 -119.016907 95 5506ft 137kts
07-Aug-20 18:26 34.361398 -118.970945 95 5507ft 137kts
07-Aug-20 18:27 34.358930 -118.924872 95 5507ft 137kts
07-Aug-20 18:28 34.356465 -118.878643 96 5403ft 144kts
07-Aug-20 18:29 34.343836 -118.830613 115 4846ft 154kts
07-Aug-20 18:30 34.326534 -118.782670 114 4331ft 153kts
07-Aug-20 18:31 34.309406 -118.735955 117 4002ft 151kts
07-Aug-20 18:32 34.292027 -118.690346 116 3782ft 148kts
07-Aug-20 18:33 34.275008 -118.645117 116 3580ft 147kts
07-Aug-20 18:34 34.258957 -118.599776 113 3388ft 147kts
07-Aug-20 18:35 34.244711 -118.553144 112 3194ft 147kts
07-Aug-20 18:36 34.230338 -118.504487 113 3071ft 148kts
07-Aug-20 18:37 34.216822 -118.459209 107 3085ft 142kts
07-Aug-20 18:38 34.218617 -118.414625 58 2541ft 135kts
07-Aug-20 18:39 34.229270 -118.379904 85 1699ft 88kts
07-Aug-20 18:40 34.218249 -118.362128 167 1007ft 87kts
07-Aug-20 18:41 34.202958 -118.358372 256 724ft 7kts
07-Aug-20 18:42 34.204152 -118.359420 348 724ft 9kts
07-Aug-20 18:43 34.204447 -118.360072 63 724ft 0kts

Navigation Log

Ident Type
Flight plan parsing failed, navigation log unavailable